Abisko, Sweden

3:55 AM CEST on April 22, 2015 (GMT +0200)
Bjornfjell 520moh | | Change Station
CLOSE
Current Station
Personal Weather Station
Location: Riksgrensen, NORDLAND
Elevation: 1706 ft
Nearby Weather Stations

Elev 1706 ft 68.44 °N, 18.07 °E | Updated 9 minutes ago

Mostly Cloudy
Mostly Cloudy
31.7 °F
Feels Like 18 °F
N
27.0
Wind Variable Wind from West
Gusts 38.0 mph

Today
High -- | Low -- °F
--% Chance of Precip.
Yesterday
High -- | Low -- °F
Precip. -- in
4:22 AM 9:07 PM
Waxing Crescent, 14% visible
Pressure 29.74 in
Visibility 6.2 miles
Clouds Few 1200 ft
Scattered Clouds 2000 ft
Mostly Cloudy 3000 ft
Windchill 18 °F
Dew Point 31 °F
Humidity 95%
Rainfall 0.00 in
Snow Depth Not available.
UV 0 out of 12
Pollen Not available.
Air Quality Not available.
Flu Activity Not available.
METAR ENDU 220050Z 28009KT 9999 VCSH FEW012 SCT020 BKN030 03/01 Q1007

More Conditions Fewer Conditions

Pressure 29.74 in
Visibility 6.2 miles
Clouds Few 1200 ft
Scattered Clouds 2000 ft
Mostly Cloudy 3000 ft
Windchill 18 °F
Dew Point 31 °F
Humidity 95%
Rainfall 0.00 in
Snow Depth Not available.
UV 0 out of 12
Pollen Not available.
Air Quality Not available.
Flu Activity Not available.
METAR ENDU 220050Z 28009KT 9999 VCSH FEW012 SCT020 BKN030 03/01 Q1007

More Conditions Fewer Conditions

10-Day Weather Forecast

Almanac

Astronomy

Apr. 22, 2015 Rise Set
Actual Time
Civil Twilight
Nautical Twilight
Astronomical Twilight
Moon
Length of Visible Light
Length of Day
Tomorrow will be .
, % of the Moon is Illuminated

Today's Extremes

Country Highs Country Lows

Community

WunderPhotos

Upload Photos

1,815,623 photos uploaded!

WunderBlogs® & News

Nearby

Air Quality

  Air Quality AQ Index Pollutant
Not available.

Snow Depth

Station Depth Elevation

Earthquake Activity

City Distance Mag. Time & Date
Minimum magnitude displayed is 2.5.

Coastal Water Temperatures

Place Temperature

Stations

Nearby Weather Stations

Station Location Temp. Windchill Dew Point Humidity Wind Precip. Elev Updated Type